sensor_id;sensor_type;location;lat;lon;timestamp;temperature;humidity
32895;DHT22;19251;49.484;8.260;2023-12-04T00:03:28;1.00;15.60
32895;DHT22;19251;49.484;8.260;2023-12-04T00:08:31;0.90;15.60
32895;DHT22;19251;49.484;8.260;2023-12-04T00:13:33;0.90;15.70
32895;DHT22;19251;49.484;8.260;2023-12-04T00:18:36;0.80;15.70
32895;DHT22;19251;49.484;8.260;2023-12-04T00:23:39;0.70;15.70
32895;DHT22;19251;49.484;8.260;2023-12-04T00:28:41;0.70;15.70
32895;DHT22;19251;49.484;8.260;2023-12-04T00:33:43;-2.00;13.90
32895;DHT22;19251;49.484;8.260;2023-12-04T00:38:45;0.60;15.80
32895;DHT22;19251;49.484;8.260;2023-12-04T00:43:47;0.50;15.80
32895;DHT22;19251;49.484;8.260;2023-12-04T00:48:49;0.40;15.80
32895;DHT22;19251;49.484;8.260;2023-12-04T00:53:51;0.40;15.80
32895;DHT22;19251;49.484;8.260;2023-12-04T00:58:53;0.40;15.90
32895;DHT22;19251;49.484;8.260;2023-12-04T01:03:55;0.30;15.90
32895;DHT22;19251;49.484;8.260;2023-12-04T01:08:57;0.30;16.00
32895;DHT22;19251;49.484;8.260;2023-12-04T01:13:59;0.30;16.10
32895;DHT22;19251;49.484;8.260;2023-12-04T01:19:01;0.30;16.20
32895;DHT22;19251;49.484;8.260;2023-12-04T01:24:04;0.40;16.40
32895;DHT22;19251;49.484;8.260;2023-12-04T01:29:06;0.50;16.50
32895;DHT22;19251;49.484;8.260;2023-12-04T01:34:08;0.50;16.50
32895;DHT22;19251;49.484;8.260;2023-12-04T01:39:10;0.50;16.50
32895;DHT22;19251;49.484;8.260;2023-12-04T01:44:12;0.60;16.50
32895;DHT22;19251;49.484;8.260;2023-12-04T01:49:14;0.60;16.50
32895;DHT22;19251;49.484;8.260;2023-12-04T01:54:17;0.50;16.40
32895;DHT22;19251;49.484;8.260;2023-12-04T01:59:19;0.50;16.50
32895;DHT22;19251;49.484;8.260;2023-12-04T02:04:21;0.50;16.50
32895;DHT22;19251;49.484;8.260;2023-12-04T02:09:24;0.50;16.50
32895;DHT22;19251;49.484;8.260;2023-12-04T02:14:26;0.40;16.50
32895;DHT22;19251;49.484;8.260;2023-12-04T02:19:28;0.40;16.50
32895;DHT22;19251;49.484;8.260;2023-12-04T02:24:31;0.40;16.40
32895;DHT22;19251;49.484;8.260;2023-12-04T02:29:41;0.30;16.40
32895;DHT22;19251;49.484;8.260;2023-12-04T02:34:47;0.30;16.40
32895;DHT22;19251;49.484;8.260;2023-12-04T02:39:50;0.30;16.50
32895;DHT22;19251;49.484;8.260;2023-12-04T02:44:54;0.30;16.50
32895;DHT22;19251;49.484;8.260;2023-12-04T02:49:57;0.30;16.60
32895;DHT22;19251;49.484;8.260;2023-12-04T02:54:59;0.30;16.60
32895;DHT22;19251;49.484;8.260;2023-12-04T03:00:01;0.30;16.70
32895;DHT22;19251;49.484;8.260;2023-12-04T03:05:04;0.30;16.70
32895;DHT22;19251;49.484;8.260;2023-12-04T03:10:06;0.30;16.80
32895;DHT22;19251;49.484;8.260;2023-12-04T03:15:09;0.30;16.90
32895;DHT22;19251;49.484;8.260;2023-12-04T03:20:13;0.40;17.10
32895;DHT22;19251;49.484;8.260;2023-12-04T03:25:15;0.40;17.10
32895;DHT22;19251;49.484;8.260;2023-12-04T03:30:17;0.00;16.70
32895;DHT22;19251;49.484;8.260;2023-12-04T03:35:19;0.50;17.10
32895;DHT22;19251;49.484;8.260;2023-12-04T03:40:22;0.50;17.10
32895;DHT22;19251;49.484;8.260;2023-12-04T03:45:24;0.50;17.20
32895;DHT22;19251;49.484;8.260;2023-12-04T03:50:26;0.50;17.20
32895;DHT22;19251;49.484;8.260;2023-12-04T03:55:28;0.50;17.20
32895;DHT22;19251;49.484;8.260;2023-12-04T04:00:31;0.60;17.30
32895;DHT22;19251;49.484;8.260;2023-12-04T04:05:33;0.60;17.30
32895;DHT22;19251;49.484;8.260;2023-12-04T04:10:36;0.60;17.40
32895;DHT22;19251;49.484;8.260;2023-12-04T04:15:38;0.70;17.50
32895;DHT22;19251;49.484;8.260;2023-12-04T04:20:40;0.70;17.40
32895;DHT22;19251;49.484;8.260;2023-12-04T04:30:44;0.70;17.30
32895;DHT22;19251;49.484;8.260;2023-12-04T04:35:47;0.70;17.40
32895;DHT22;19251;49.484;8.260;2023-12-04T04:45:51;0.80;17.50
32895;DHT22;19251;49.484;8.260;2023-12-04T04:50:53;0.80;17.40
32895;DHT22;19251;49.484;8.260;2023-12-04T04:55:56;0.80;17.40
32895;DHT22;19251;49.484;8.260;2023-12-04T05:00:59;0.70;17.30
32895;DHT22;19251;49.484;8.260;2023-12-04T05:06:01;0.70;17.40
32895;DHT22;19251;49.484;8.260;2023-12-04T05:11:04;0.70;17.40
32895;DHT22;19251;49.484;8.260;2023-12-04T05:16:06;0.70;17.40
32895;DHT22;19251;49.484;8.260;2023-12-04T05:21:09;0.70;17.40
32895;DHT22;19251;49.484;8.260;2023-12-04T05:26:11;0.70;17.50
32895;DHT22;19251;49.484;8.260;2023-12-04T05:31:13;0.80;17.60
32895;DHT22;19251;49.484;8.260;2023-12-04T05:36:15;0.80;17.70
32895;DHT22;19251;49.484;8.260;2023-12-04T05:41:17;0.80;17.70
32895;DHT22;19251;49.484;8.260;2023-12-04T05:46:19;0.90;17.70
32895;DHT22;19251;49.484;8.260;2023-12-04T05:51:21;0.80;17.60
32895;DHT22;19251;49.484;8.260;2023-12-04T05:56:24;0.80;17.60
32895;DHT22;19251;49.484;8.260;2023-12-04T06:01:26;0.90;17.70
32895;DHT22;19251;49.484;8.260;2023-12-04T06:06:28;0.90;17.80
32895;DHT22;19251;49.484;8.260;2023-12-04T06:11:30;1.00;17.90
32895;DHT22;19251;49.484;8.260;2023-12-04T06:16:32;1.00;17.90
32895;DHT22;19251;49.484;8.260;2023-12-04T06:21:34;1.10;18.00
32895;DHT22;19251;49.484;8.260;2023-12-04T06:26:36;1.30;18.10
32895;DHT22;19251;49.484;8.260;2023-12-04T06:37:11;1.40;18.10
32895;DHT22;19251;49.484;8.260;2023-12-04T06:42:14;1.50;18.20
32895;DHT22;19251;49.484;8.260;2023-12-04T06:47:17;1.50;18.10
32895;DHT22;19251;49.484;8.260;2023-12-04T06:52:19;1.60;18.20
32895;DHT22;19251;49.484;8.260;2023-12-04T06:57:21;1.70;18.20
32895;DHT22;19251;49.484;8.260;2023-12-04T07:02:23;1.70;18.20
32895;DHT22;19251;49.484;8.260;2023-12-04T07:07:25;1.80;18.20
32895;DHT22;19251;49.484;8.260;2023-12-04T07:12:27;1.80;18.20
32895;DHT22;19251;49.484;8.260;2023-12-04T07:17:29;1.90;18.20
32895;DHT22;19251;49.484;8.260;2023-12-04T07:22:32;1.90;18.20
32895;DHT22;19251;49.484;8.260;2023-12-04T07:27:39;2.00;18.20
32895;DHT22;19251;49.484;8.260;2023-12-04T07:32:42;2.00;18.20
32895;DHT22;19251;49.484;8.260;2023-12-04T07:37:44;2.10;18.30
32895;DHT22;19251;49.484;8.260;2023-12-04T07:42:46;2.10;18.20
32895;DHT22;19251;49.484;8.260;2023-12-04T07:47:48;2.40;18.40
32895;DHT22;19251;49.484;8.260;2023-12-04T07:52:52;2.30;18.30
32895;DHT22;19251;49.484;8.260;2023-12-04T08:02:58;2.40;18.30
32895;DHT22;19251;49.484;8.260;2023-12-04T08:08:00;2.60;18.40
32895;DHT22;19251;49.484;8.260;2023-12-04T08:13:02;2.50;18.20
32895;DHT22;19251;49.484;8.260;2023-12-04T08:18:04;2.60;18.30
32895;DHT22;19251;49.484;8.260;2023-12-04T08:23:07;2.70;18.20
32895;DHT22;19251;49.484;8.260;2023-12-04T08:28:09;2.80;18.20
32895;DHT22;19251;49.484;8.260;2023-12-04T08:33:11;2.90;18.30
32895;DHT22;19251;49.484;8.260;2023-12-04T08:38:14;3.00;18.20
32895;DHT22;19251;49.484;8.260;2023-12-04T08:43:16;3.00;18.10
32895;DHT22;19251;49.484;8.260;2023-12-04T08:48:18;3.20;18.10
32895;DHT22;19251;49.484;8.260;2023-12-04T08:53:20;3.30;18.10
32895;DHT22;19251;49.484;8.260;2023-12-04T08:58:23;3.40;18.10
32895;DHT22;19251;49.484;8.260;2023-12-04T09:03:25;3.50;17.90
32895;DHT22;19251;49.484;8.260;2023-12-04T09:08:34;3.60;17.70
32895;DHT22;19251;49.484;8.260;2023-12-04T09:13:45;3.60;17.60
32895;DHT22;19251;49.484;8.260;2023-12-04T09:18:47;3.60;17.50
32895;DHT22;19251;49.484;8.260;2023-12-04T09:23:49;3.60;17.30
32895;DHT22;19251;49.484;8.260;2023-12-04T09:28:52;3.60;17.30
32895;DHT22;19251;49.484;8.260;2023-12-04T09:33:55;3.70;17.30
32895;DHT22;19251;49.484;8.260;2023-12-04T09:38:57;3.60;17.20
32895;DHT22;19251;49.484;8.260;2023-12-04T09:43:59;3.70;17.20
32895;DHT22;19251;49.484;8.260;2023-12-04T09:49:01;3.70;17.10
32895;DHT22;19251;49.484;8.260;2023-12-04T09:54:04;3.70;17.00
32895;DHT22;19251;49.484;8.260;2023-12-04T09:59:07;3.70;17.10
32895;DHT22;19251;49.484;8.260;2023-12-04T10:04:09;3.70;17.00
32895;DHT22;19251;49.484;8.260;2023-12-04T10:09:12;3.80;17.00
32895;DHT22;19251;49.484;8.260;2023-12-04T10:14:16;3.90;17.10
32895;DHT22;19251;49.484;8.260;2023-12-04T10:19:20;3.90;17.10
32895;DHT22;19251;49.484;8.260;2023-12-04T10:24:29;4.00;17.00
32895;DHT22;19251;49.484;8.260;2023-12-04T10:29:47;4.10;17.00
32895;DHT22;19251;49.484;8.260;2023-12-04T10:34:50;4.10;16.90
32895;DHT22;19251;49.484;8.260;2023-12-04T10:39:52;4.10;16.80
32895;DHT22;19251;49.484;8.260;2023-12-04T10:44:57;4.10;16.90
32895;DHT22;19251;49.484;8.260;2023-12-04T10:49:59;4.10;16.90
32895;DHT22;19251;49.484;8.260;2023-12-04T11:00:08;4.20;17.10
32895;DHT22;19251;49.484;8.260;2023-12-04T11:05:13;4.20;17.10
32895;DHT22;19251;49.484;8.260;2023-12-04T11:10:22;4.20;17.10
32895;DHT22;19251;49.484;8.260;2023-12-04T11:15:28;4.30;17.20
32895;DHT22;19251;49.484;8.260;2023-12-04T11:20:31;4.20;17.20
32895;DHT22;19251;49.484;8.260;2023-12-04T11:25:37;4.20;17.40
32895;DHT22;19251;49.484;8.260;2023-12-04T11:30:40;4.20;17.50
32895;DHT22;19251;49.484;8.260;2023-12-04T11:35:42;4.20;17.60
32895;DHT22;19251;49.484;8.260;2023-12-04T11:40:46;4.30;17.80
32895;DHT22;19251;49.484;8.260;2023-12-04T11:45:48;4.30;17.90
32895;DHT22;19251;49.484;8.260;2023-12-04T11:50:51;4.30;17.90
32895;DHT22;19251;49.484;8.260;2023-12-04T11:55:57;4.40;18.00
32895;DHT22;19251;49.484;8.260;2023-12-04T12:00:59;4.40;18.00
32895;DHT22;19251;49.484;8.260;2023-12-04T12:06:03;4.40;18.00
32895;DHT22;19251;49.484;8.260;2023-12-04T12:11:06;4.40;18.10
32895;DHT22;19251;49.484;8.260;2023-12-04T12:16:08;4.40;18.10
32895;DHT22;19251;49.484;8.260;2023-12-04T12:21:10;4.40;18.20
32895;DHT22;19251;49.484;8.260;2023-12-04T12:26:12;4.30;18.20
32895;DHT22;19251;49.484;8.260;2023-12-04T12:31:14;4.30;18.40
32895;DHT22;19251;49.484;8.260;2023-12-04T12:36:16;4.30;18.50
32895;DHT22;19251;49.484;8.260;2023-12-04T12:41:19;4.40;18.60
32895;DHT22;19251;49.484;8.260;2023-12-04T12:46:22;4.40;18.80
32895;DHT22;19251;49.484;8.260;2023-12-04T12:56:26;4.60;19.10
32895;DHT22;19251;49.484;8.260;2023-12-04T13:01:32;4.70;19.10
32895;DHT22;19251;49.484;8.260;2023-12-04T13:06:34;4.70;19.00
32895;DHT22;19251;49.484;8.260;2023-12-04T13:11:37;4.80;19.20
32895;DHT22;19251;49.484;8.260;2023-12-04T13:16:39;4.80;19.10
32895;DHT22;19251;49.484;8.260;2023-12-04T13:21:42;4.80;19.00
32895;DHT22;19251;49.484;8.260;2023-12-04T13:26:45;4.80;18.90
32895;DHT22;19251;49.484;8.260;2023-12-04T13:31:48;4.80;19.00
32895;DHT22;19251;49.484;8.260;2023-12-04T13:36:52;4.70;19.00
32895;DHT22;19251;49.484;8.260;2023-12-04T13:41:55;4.70;19.10
32895;DHT22;19251;49.484;8.260;2023-12-04T13:47:16;4.60;19.10
32895;DHT22;19251;49.484;8.260;2023-12-04T13:52:18;4.60;19.20
32895;DHT22;19251;49.484;8.260;2023-12-04T13:57:24;4.60;19.30
32895;DHT22;19251;49.484;8.260;2023-12-04T14:02:34;4.60;19.40
32895;DHT22;19251;49.484;8.260;2023-12-04T14:07:39;4.50;19.30
32895;DHT22;19251;49.484;8.260;2023-12-04T14:12:42;4.50;19.40
32895;DHT22;19251;49.484;8.260;2023-12-04T14:17:44;4.50;19.50
32895;DHT22;19251;49.484;8.260;2023-12-04T14:22:48;4.50;19.50
32895;DHT22;19251;49.484;8.260;2023-12-04T14:27:50;4.40;19.50
32895;DHT22;19251;49.484;8.260;2023-12-04T14:32:52;4.40;19.50
32895;DHT22;19251;49.484;8.260;2023-12-04T14:37:55;4.40;19.60
32895;DHT22;19251;49.484;8.260;2023-12-04T14:42:57;4.40;19.70
32895;DHT22;19251;49.484;8.260;2023-12-04T14:47:59;4.40;19.70
32895;DHT22;19251;49.484;8.260;2023-12-04T14:53:01;4.40;19.70
32895;DHT22;19251;49.484;8.260;2023-12-04T14:58:17;4.40;19.80
32895;DHT22;19251;49.484;8.260;2023-12-04T15:08:34;4.40;19.90
32895;DHT22;19251;49.484;8.260;2023-12-04T15:13:42;4.40;19.90
32895;DHT22;19251;49.484;8.260;2023-12-04T15:18:44;4.40;19.90
32895;DHT22;19251;49.484;8.260;2023-12-04T15:24:06;4.30;20.00
32895;DHT22;19251;49.484;8.260;2023-12-04T15:34:12;4.30;20.00
32895;DHT22;19251;49.484;8.260;2023-12-04T15:39:14;4.30;20.10
32895;DHT22;19251;49.484;8.260;2023-12-04T15:44:21;4.30;20.20
32895;DHT22;19251;49.484;8.260;2023-12-04T15:49:23;4.40;20.30
32895;DHT22;19251;49.484;8.260;2023-12-04T15:54:25;4.30;20.30
32895;DHT22;19251;49.484;8.260;2023-12-04T15:59:27;4.40;20.40
32895;DHT22;19251;49.484;8.260;2023-12-04T16:04:30;4.40;20.40
32895;DHT22;19251;49.484;8.260;2023-12-04T16:09:35;4.40;20.50
32895;DHT22;19251;49.484;8.260;2023-12-04T16:19:42;4.40;20.70
32895;DHT22;19251;49.484;8.260;2023-12-04T16:24:45;4.40;20.70
32895;DHT22;19251;49.484;8.260;2023-12-04T16:29:47;4.40;20.80
32895;DHT22;19251;49.484;8.260;2023-12-04T16:34:49;4.50;21.00
32895;DHT22;19251;49.484;8.260;2023-12-04T16:39:52;4.50;21.00
32895;DHT22;19251;49.484;8.260;2023-12-04T16:44:54;4.50;20.90
32895;DHT22;19251;49.484;8.260;2023-12-04T16:49:57;4.50;21.00
32895;DHT22;19251;49.484;8.260;2023-12-04T16:54:59;4.50;21.00
32895;DHT22;19251;49.484;8.260;2023-12-04T17:05:06;4.60;21.30
32895;DHT22;19251;49.484;8.260;2023-12-04T17:10:09;4.60;21.30
32895;DHT22;19251;49.484;8.260;2023-12-04T17:15:11;4.60;21.30
32895;DHT22;19251;49.484;8.260;2023-12-04T17:20:13;4.70;21.40
32895;DHT22;19251;49.484;8.260;2023-12-04T17:25:16;4.70;21.40
32895;DHT22;19251;49.484;8.260;2023-12-04T17:30:18;4.80;21.60
32895;DHT22;19251;49.484;8.260;2023-12-04T17:35:20;4.80;21.50
32895;DHT22;19251;49.484;8.260;2023-12-04T17:40:23;4.80;21.60
32895;DHT22;19251;49.484;8.260;2023-12-04T17:45:26;4.80;21.60
32895;DHT22;19251;49.484;8.260;2023-12-04T17:50:33;4.80;21.70
32895;DHT22;19251;49.484;8.260;2023-12-04T17:55:35;4.80;21.70
32895;DHT22;19251;49.484;8.260;2023-12-04T18:00:38;4.80;21.80
32895;DHT22;19251;49.484;8.260;2023-12-04T18:05:40;4.80;21.80
32895;DHT22;19251;49.484;8.260;2023-12-04T18:10:42;4.90;21.90
32895;DHT22;19251;49.484;8.260;2023-12-04T18:15:44;5.00;22.10
32895;DHT22;19251;49.484;8.260;2023-12-04T18:20:46;5.00;22.10
32895;DHT22;19251;49.484;8.260;2023-12-04T18:25:49;5.00;22.10
32895;DHT22;19251;49.484;8.260;2023-12-04T18:30:51;5.10;22.20
32895;DHT22;19251;49.484;8.260;2023-12-04T18:35:54;5.10;22.10
32895;DHT22;19251;49.484;8.260;2023-12-04T18:40:56;5.10;22.20
32895;DHT22;19251;49.484;8.260;2023-12-04T18:46:01;5.20;22.30
32895;DHT22;19251;49.484;8.260;2023-12-04T18:51:03;5.20;22.30
32895;DHT22;19251;49.484;8.260;2023-12-04T18:56:06;5.20;22.30
32895;DHT22;19251;49.484;8.260;2023-12-04T19:01:09;5.20;22.40
32895;DHT22;19251;49.484;8.260;2023-12-04T19:06:11;5.20;22.40
32895;DHT22;19251;49.484;8.260;2023-12-04T19:11:13;5.20;22.50
32895;DHT22;19251;49.484;8.260;2023-12-04T19:16:15;5.20;22.50
32895;DHT22;19251;49.484;8.260;2023-12-04T19:21:19;5.20;22.40
32895;DHT22;19251;49.484;8.260;2023-12-04T19:26:21;5.30;22.50
32895;DHT22;19251;49.484;8.260;2023-12-04T19:31:23;5.30;22.50
32895;DHT22;19251;49.484;8.260;2023-12-04T19:36:28;5.30;22.40
32895;DHT22;19251;49.484;8.260;2023-12-04T19:41:30;5.30;22.40
32895;DHT22;19251;49.484;8.260;2023-12-04T19:46:41;5.30;22.50
32895;DHT22;19251;49.484;8.260;2023-12-04T19:51:44;5.40;22.70
32895;DHT22;19251;49.484;8.260;2023-12-04T19:56:46;5.30;22.70
32895;DHT22;19251;49.484;8.260;2023-12-04T20:01:50;5.30;22.70
32895;DHT22;19251;49.484;8.260;2023-12-04T20:06:53;5.30;22.80
32895;DHT22;19251;49.484;8.260;2023-12-04T20:11:56;5.30;22.90
32895;DHT22;19251;49.484;8.260;2023-12-04T20:16:58;5.40;22.90
32895;DHT22;19251;49.484;8.260;2023-12-04T20:22:00;5.40;22.90
32895;DHT22;19251;49.484;8.260;2023-12-04T20:27:02;5.40;22.90
32895;DHT22;19251;49.484;8.260;2023-12-04T20:32:07;5.40;22.90
32895;DHT22;19251;49.484;8.260;2023-12-04T20:42:12;5.50;23.00
32895;DHT22;19251;49.484;8.260;2023-12-04T20:52:17;5.50;23.00
32895;DHT22;19251;49.484;8.260;2023-12-04T20:57:19;5.60;23.10
32895;DHT22;19251;49.484;8.260;2023-12-04T21:02:22;5.60;23.10
32895;DHT22;19251;49.484;8.260;2023-12-04T21:07:24;5.60;23.10
32895;DHT22;19251;49.484;8.260;2023-12-04T21:12:29;5.60;23.10
32895;DHT22;19251;49.484;8.260;2023-12-04T21:17:31;5.60;23.10
32895;DHT22;19251;49.484;8.260;2023-12-04T21:27:36;5.70;23.10
32895;DHT22;19251;49.484;8.260;2023-12-04T21:32:38;5.60;23.10
32895;DHT22;19251;49.484;8.260;2023-12-04T21:37:41;5.60;23.10
32895;DHT22;19251;49.484;8.260;2023-12-04T21:42:43;5.60;23.10
32895;DHT22;19251;49.484;8.260;2023-12-04T21:47:45;5.60;23.10
32895;DHT22;19251;49.484;8.260;2023-12-04T21:52:47;5.60;23.10
32895;DHT22;19251;49.484;8.260;2023-12-04T21:57:49;5.80;23.20
32895;DHT22;19251;49.484;8.260;2023-12-04T22:02:51;5.60;23.20
32895;DHT22;19251;49.484;8.260;2023-12-04T22:07:53;5.60;23.30
32895;DHT22;19251;49.484;8.260;2023-12-04T22:12:55;5.60;23.40
32895;DHT22;19251;49.484;8.260;2023-12-04T22:17:57;5.60;23.40
32895;DHT22;19251;49.484;8.260;2023-12-04T22:23:00;5.60;23.50
32895;DHT22;19251;49.484;8.260;2023-12-04T22:28:02;5.60;23.60
32895;DHT22;19251;49.484;8.260;2023-12-04T22:33:04;5.70;23.50
32895;DHT22;19251;49.484;8.260;2023-12-04T22:38:06;5.70;23.60
32895;DHT22;19251;49.484;8.260;2023-12-04T22:43:08;5.70;23.60
32895;DHT22;19251;49.484;8.260;2023-12-04T22:48:10;5.70;23.60
32895;DHT22;19251;49.484;8.260;2023-12-04T22:53:13;5.70;23.60
32895;DHT22;19251;49.484;8.260;2023-12-04T23:03:17;5.80;23.60
32895;DHT22;19251;49.484;8.260;2023-12-04T23:08:20;5.90;23.80
32895;DHT22;19251;49.484;8.260;2023-12-04T23:13:22;5.80;23.80
32895;DHT22;19251;49.484;8.260;2023-12-04T23:18:24;5.80;23.80
32895;DHT22;19251;49.484;8.260;2023-12-04T23:23:26;5.80;23.90
32895;DHT22;19251;49.484;8.260;2023-12-04T23:28:28;5.80;23.90
32895;DHT22;19251;49.484;8.260;2023-12-04T23:33:30;5.80;23.90
32895;DHT22;19251;49.484;8.260;2023-12-04T23:38:32;5.80;24.00
32895;DHT22;19251;49.484;8.260;2023-12-04T23:43:34;5.80;24.00
32895;DHT22;19251;49.484;8.260;2023-12-04T23:48:36;5.90;24.20
32895;DHT22;19251;49.484;8.260;2023-12-04T23:53:40;5.90;24.20
32895;DHT22;19251;49.484;8.260;2023-12-04T23:58:42;5.90;24.30
